Latest Weather Observations for Shark Bay Airport

IDW60801

Issued at 5:02 am WST Saturday 28 February 2015 (issued every 30 minutes, with the page automatically refreshed every 10 minutes)

About weather observations | Map of weather stations | Latest weather observations for WA | Other Formats
Station Details ID: 006105 Name: SHARK BAY AIRPORT Lat: -25.89 Lon: 113.58 Height: 33.8 m
Data from the previous 72 hours. | See also: Recent months for locations in Western Australia
Date/Time
WST
Temp
°C
App
Temp
°C
Dew
Point
Rel
Hum
%
Delta-T
°C
Wind Press
QNH
hPa
Press
MSL
hPa
Rain
since 9 am
mm
Dir
 
Spd
km/h
Gust
km/h
Spd
kts
Gust
kts
28/05:00am 21.9 19.9 15.5 67 3.8 SSE 20 28 11 15 1009.2 1009.0 0.0
28/04:30am 21.9 20.2 15.7 68 3.7 SSE 19 26 10 14 1009.0 1008.8 0.0
28/04:00am 21.8 20.0 15.6 68 3.7 S 19 28 10 15 1008.6 1008.4 0.0
28/03:30am 21.9 20.0 15.7 68 3.7 SSE 20 32 11 17 1008.4 1008.2 0.0
28/03:00am 22.0 19.4 15.8 68 3.7 SSE 24 32 13 17 1008.3 1008.1 0.0
28/02:30am 22.1 19.5 15.9 68 3.7 SSE 24 35 13 19 1008.3 1008.1 0.0
28/02:00am 22.4 19.6 16.4 69 3.7 SSE 26 35 14 19 1008.3 1008.1 0.0
28/01:30am 22.5 20.1 16.3 68 3.8 SSE 24 37 13 20 1008.4 1008.2 0.0
28/01:00am 22.5 20.1 16.3 68 3.8 S 24 32 13 17 1008.4 1008.2 0.0
28/12:30am 22.7 20.0 16.5 68 3.8 S 26 35 14 19 1008.7 1008.5 0.0
28/12:00am 22.8 20.5 16.6 68 3.8 S 24 33 13 18 1009.3 1009.1 0.0
 
Date/Time
WST
Temp
°C
App
Temp
°C
Dew
Point
Rel
Hum
%
Delta-T
°C
Wind Press
QNH
hPa
Press
MSL
hPa
Rain
since 9 am
mm
Dir
 
Spd
km/h
Gust
km/h
Spd
kts
Gust
kts
27/11:30pm 23.0 19.6 16.8 68 3.8 S 30 41 16 22 1009.6 1009.4 0.0
27/11:00pm 23.1 20.1 16.9 68 3.8 S 28 41 15 22 1009.6 1009.4 0.0
27/10:30pm 23.1 19.6 16.4 66 4.1 S 30 44 16 24 1009.6 1009.4 0.0
27/10:00pm 23.2 19.2 16.7 67 4.0 S 33 43 18 23 1009.7 1009.5 0.0
27/09:30pm 23.3 20.6 17.5 70 3.6 S 28 39 15 21 1009.6 1009.4 0.0
27/09:00pm 23.4 19.8 17.2 68 3.8 S 32 44 17 24 1009.3 1009.1 0.0
27/08:30pm 23.5 19.7 16.8 66 4.1 S 32 41 17 22 1009.2 1009.0 0.0
27/08:00pm 23.6 20.8 17.3 67 3.9 S 28 43 15 23 1009.0 1008.8 0.0
27/07:30pm 23.9 20.3 17.2 66 4.1 S 32 41 17 22 1008.4 1008.2 0.0
27/07:00pm 24.2 20.5 17.4 65 4.2 S 33 46 18 25 1007.9 1007.7 0.0
27/06:30pm 25.0 21.4 17.7 64 4.6 SSW 33 48 18 26 1007.4 1007.2 0.0
27/06:00pm 26.0 22.0 17.6 60 5.3 SSW 35 50 19 27 1007.2 1007.0 0.0
27/05:30pm 26.8 22.8 16.7 54 6.3 SSW 33 46 18 25 1007.4 1007.2 0.0
27/05:00pm 27.4 23.0 16.7 52 6.7 SSW 35 46 19 25 1007.5 1007.3 0.0
27/04:30pm 28.1 24.2 16.4 49 7.3 SSW 32 43 17 23 1007.7 1007.5 0.0
27/04:00pm 28.3 23.9 16.6 49 7.3 SSW 35 46 19 25 1007.7 1007.5 0.0
27/03:30pm 28.5 25.0 16.4 48 7.5 SW 30 41 16 22 1007.9 1007.7 0.0
27/03:00pm 29.0 25.7 16.9 48 7.6 SSW 30 39 16 21 1008.0 1007.8 0.0
27/02:30pm 29.5 26.3 17.3 47 7.7 SSW 30 41 16 22 1008.2 1008.0 0.0
27/02:00pm 29.6 25.8 16.8 46 8.1 SW 32 39 17 21 1008.2 1008.0 0.0
27/01:30pm 30.4 27.8 16.8 44 8.6 SW 26 35 14 19 1008.7 1008.5 0.0
27/01:00pm 29.8 26.2 16.2 43 8.5 SW 30 39 16 21 1008.7 1008.5 0.0
27/12:30pm 29.2 26.6 16.0 44 8.2 SW 24 37 13 20 1009.2 1009.0 0.0
27/12:00pm 28.2 26.6 16.5 49 7.3 SSW 20 32 11 17 1009.5 1009.3 0.0
27/11:30am 27.4 26.3 17.8 55 6.1 S 20 28 11 15 1010.0 1009.8 0.0
27/11:00am 26.5 25.9 17.6 58 5.6 S 17 26 9 14 1010.2 1010.0 0.0
27/10:30am 25.8 25.5 18.2 63 4.8 S 17 24 9 13 1010.6 1010.4 0.0
27/10:00am 24.9 24.0 18.3 66 4.2 S 20 26 11 14 1010.7 1010.5 0.0
27/09:30am 25.3 23.3 18.2 64 4.5 SSW 26 33 14 18 1010.5 1010.3 0.0
27/09:00am 26.2 25.0 18.3 61 5.0 SSW 22 33 12 18 1010.3 1010.1 0.0
27/08:30am 25.5 24.3 17.4 61 5.1 S 20 32 11 17 1010.1 1009.9 0.0
27/08:00am 24.6 23.1 17.8 66 4.3 S 22 32 12 17 1009.9 1009.7 0.0
27/07:30am 24.5 23.0 17.7 66 4.3 S 22 28 12 15 1009.5 1009.3 0.0
27/07:00am 23.8 23.8 18.2 71 3.5 S 15 20 8 11 1009.1 1008.9 0.0
27/06:30am 22.7 23.2 17.4 72 3.3 S 11 15 6 8 1009.0 1008.8 0.0
27/06:00am 23.0 22.4 17.5 71 3.4 S 17 24 9 13 1008.7 1008.5 0.0
27/05:30am 23.1 22.7 18.0 73 3.2 SSW 17 26 9 14 1008.6 1008.4 0.0
27/05:00am 23.0 21.9 17.7 72 3.3 SSW 20 28 11 15 1008.3 1008.1 0.0
27/04:30am 23.1 21.9 17.6 71 3.4 SSW 20 30 11 16 1008.1 1007.9 0.0
27/04:00am 23.3 21.7 17.5 70 3.6 SSW 22 30 12 16 1007.7 1007.5 0.0
27/03:30am 23.4 21.9 17.6 70 3.6 SSW 22 30 12 16 1007.7 1007.5 0.0
27/03:00am 23.7 22.9 17.9 70 3.6 SSW 19 28 10 15 1007.7 1007.5 0.0
27/02:30am 23.7 22.4 18.1 71 3.5 SSW 22 30 12 16 1007.8 1007.6 0.0
27/02:00am 23.8 22.9 18.2 71 3.5 SSW 20 26 11 14 1008.1 1007.9 0.0
27/01:30am 23.9 23.5 18.8 73 3.2 SSW 19 28 10 15 1008.0 1007.8 0.0
27/01:00am 23.7 23.2 18.6 73 3.2 SSW 19 24 10 13 1008.2 1008.0 0.0
27/12:30am 24.0 22.7 18.2 70 3.6 SSW 22 28 12 15 1008.4 1008.2 0.0
27/12:00am 24.1 23.6 19.2 74 3.1 S 20 28 11 15 1008.4 1008.2 0.0
 
Date/Time
WST
Temp
°C
App
Temp
°C
Dew
Point
Rel
Hum
%
Delta-T
°C
Wind Press
QNH
hPa
Press
MSL
hPa
Rain
since 9 am
mm
Dir
 
Spd
km/h
Gust
km/h
Spd
kts
Gust
kts
26/11:30pm 24.2 23.2 18.8 72 3.4 SSW 22 32 12 17 1008.4 1008.2 0.0
26/11:00pm 24.3 23.2 18.7 71 3.6 SSW 22 28 12 15 1008.4 1008.2 0.0
26/10:30pm 24.4 24.0 18.8 71 3.6 S 19 24 10 13 1008.8 1008.6 0.0
26/10:00pm 24.6 24.1 19.2 72 3.5 SSW 20 28 11 15 1008.8 1008.6 0.0
26/09:30pm 24.7 24.5 19.3 72 3.5 SSW 19 24 10 13 1009.0 1008.8 0.0
26/09:00pm 24.7 24.4 19.1 71 3.6 SSW 19 26 10 14 1008.8 1008.6 0.0
26/08:30pm 24.9 24.5 19.3 71 3.6 SSW 20 28 11 15 1008.4 1008.2 0.0
26/08:00pm 25.4 25.2 19.8 71 3.6 SSW 20 26 11 14 1008.1 1007.9 0.0
26/07:30pm 25.5 25.4 19.9 71 3.6 SW 20 30 11 16 1007.7 1007.5 0.0
26/07:00pm 25.9 25.4 20.0 70 3.8 SW 22 32 12 17 1007.4 1007.2 0.0
26/06:30pm 26.3 25.8 19.9 68 4.2 SW 22 30 12 16 1007.1 1006.9 0.0
26/06:00pm 26.9 25.4 20.3 67 4.3 WSW 28 39 15 21 1006.9 1006.7 0.0
26/05:30pm 27.9 26.4 20.2 63 5.1 WSW 28 35 15 19 1006.8 1006.6 0.0
26/05:00pm 28.6 26.9 19.8 59 5.8 WSW 28 39 15 21 1006.7 1006.5 0.0
26/04:30pm 28.5 27.3 20.0 60 5.6 WSW 26 35 14 19 1006.7 1006.5 0.0
26/04:00pm 29.3 27.8 20.2 58 6.0 WSW 28 37 15 20 1006.8 1006.6 0.0
26/03:30pm 29.6 27.3 20.2 57 6.2 WSW 32 39 17 21 1006.9 1006.7 0.0
26/03:00pm 30.4 28.4 20.0 53 6.9 WSW 30 41 16 22 1007.1 1006.9 0.0
26/02:30pm 30.9 29.2 19.9 52 7.3 W 28 39 15 21 1007.3 1007.1 0.0
26/02:00pm 31.0 29.6 19.7 51 7.4 W 26 35 14 19 1007.5 1007.3 0.0
26/01:30pm 30.7 29.7 19.7 52 7.2 W 24 33 13 18 1007.7 1007.5 0.0
26/01:00pm 31.7 31.8 20.3 50 7.6 W 20 28 11 15 1008.1 1007.9 0.0
26/12:30pm 31.0 30.5 20.0 52 7.3 W 22 33 12 18 1008.3 1008.1 0.0
26/12:00pm 30.1 29.9 19.8 54 6.8 W 20 26 11 14 1008.6 1008.4 0.0
26/11:30am 30.8 31.8 21.0 56 6.6 W 17 24 9 13 1008.9 1008.7 0.0
26/11:00am 29.6 30.2 20.2 57 6.2 WSW 17 26 9 14 1009.0 1008.8 0.0
26/10:30am 28.2 29.3 19.7 60 5.5 WSW 13 20 7 11 1009.1 1008.9 0.0
26/10:00am 27.7 28.3 19.5 61 5.3 WSW 15 22 8 12 1009.2 1009.0 0.0
26/09:30am 27.7 28.3 20.3 64 4.9 W 17 20 9 11 1009.3 1009.1 0.0
26/09:00am 26.6 27.7 19.7 66 4.5 SW 13 19 7 10 1009.4 1009.2 0.0
26/08:30am 26.2 27.3 20.5 71 3.7 WSW 15 22 8 12 1009.4 1009.2 0.0
26/08:00am 25.3 25.6 20.3 74 3.3 WSW 19 24 10 13 1009.4 1009.2 0.0
26/07:30am 25.3 26.7 21.0 77 2.8 WSW 15 19 8 10 1009.2 1009.0 0.0
26/07:00am 23.6 25.9 20.7 84 1.9 W 9 11 5 6 1009.0 1008.8 0.0
26/06:30am 23.1 25.3 20.4 85 1.8 W 9 11 5 6 1008.7 1008.5 0.0
26/06:00am 22.9 25.2 19.9 83 1.9 WSW 7 11 4 6 1008.4 1008.2 0.0
26/05:30am 23.2 24.9 20.2 83 1.9 W 11 11 6 6 1008.1 1007.9 0.0
26/05:00am 23.5 25.7 20.4 83 2.0 WSW 9 11 5 6 1007.9 1007.7 0.0
26/04:30am 23.6 25.8 20.5 83 2.0 WSW 9 13 5 7 1007.8 1007.6 0.0
26/04:00am 23.4 25.1 20.1 82 2.1 WSW 11 13 6 7 1007.5 1007.3 0.0
26/03:30am 23.6 25.4 20.3 82 2.1 WSW 11 13 6 7 1007.5 1007.3 0.0
26/03:00am 23.6 25.8 20.3 82 2.1 W 9 11 5 6 1007.5 1007.3 0.0
26/02:30am 23.6 25.7 20.1 81 2.3 WSW 9 11 5 6 1007.4 1007.2 0.0
26/02:00am 23.7 26.3 20.4 82 2.1 WSW 7 11 4 6 1007.7 1007.5 0.0
26/01:30am 23.6 25.3 20.1 81 2.3 WSW 11 13 6 7 1007.6 1007.4 0.0
26/01:00am 23.8 25.6 20.3 81 2.3 WSW 11 15 6 8 1008.0 1007.8 0.0
26/12:30am 23.9 25.0 20.4 81 2.3 WSW 15 20 8 11 1007.9 1007.7 0.0
26/12:00am 24.0 25.0 20.3 80 2.4 WSW 15 19 8 10 1008.2 1008.0 0.0
 
Date/Time
WST
Temp
°C
App
Temp
°C
Dew
Point
Rel
Hum
%
Delta-T
°C
Wind Press
QNH
hPa
Press
MSL
hPa
Rain
since 9 am
mm
Dir
 
Spd
km/h
Gust
km/h
Spd
kts
Gust
kts
25/11:30pm 24.2 25.3 20.5 80 2.4 W 15 19 8 10 1008.4 1008.2 0.0
25/11:00pm 24.4 25.5 20.5 79 2.5 WSW 15 20 8 11 1008.7 1008.5 0.0
25/10:30pm 24.4 25.7 20.1 77 2.8 WSW 13 17 7 9 1009.2 1009.0 0.0
25/10:00pm 24.5 25.7 20.0 76 2.9 WSW 13 17 7 9 1009.2 1009.0 0.0
25/09:30pm 24.8 26.6 20.3 76 2.9 WSW 11 15 6 8 1009.4 1009.2 0.0
25/09:00pm 25.0 26.8 20.3 75 3.1 SW 11 13 6 7 1009.5 1009.3 0.0
25/08:30pm 25.1 26.4 20.1 74 3.2 SW 13 19 7 10 1009.3 1009.1 0.0
25/08:00pm 25.2 26.4 20.0 73 3.4 SW 13 20 7 11 1009.4 1009.2 0.0
25/07:30pm 25.3 25.3 19.7 71 3.6 SW 19 24 10 13 1008.9 1008.7 0.0
25/07:00pm 25.7 25.7 19.8 70 3.8 SW 19 26 10 14 1008.4 1008.2 0.0
25/06:30pm 26.5 26.4 19.9 67 4.3 WSW 20 26 11 14 1007.9 1007.7 0.0
25/06:00pm 27.0 25.3 19.9 65 4.6 WSW 28 33 15 18 1007.6 1007.4 0.0
25/05:30pm 27.7 26.1 20.0 63 5.0 WSW 28 35 15 19 1007.3 1007.1 0.0
25/05:00pm 28.5 26.5 20.0 60 5.6 WSW 30 41 16 22 1007.0 1006.8 0.0
25/04:30pm 29.4 27.6 20.3 58 6.0 WSW 30 39 16 21 1007.2 1007.0 0.0
25/04:00pm 30.3 28.9 20.5 55 6.5 WSW 28 39 15 21 1007.1 1006.9 0.0
25/03:30pm 30.9 29.9 20.5 54 6.9 WSW 26 35 14 19 1007.1 1006.9 0.0
25/03:00pm 30.7 29.6 20.3 53 6.9 W 26 33 14 18 1007.2 1007.0 0.0
25/02:30pm 31.0 29.9 20.3 53 7.1 WSW 26 35 14 19 1007.3 1007.1 0.0
25/02:00pm 31.0 29.9 20.3 53 7.1 W 26 32 14 17 1007.4 1007.2 0.0
25/01:30pm 31.2 30.5 20.2 52 7.3 W 24 32 13 17 1007.7 1007.5 0.0
25/01:00pm 32.1 31.6 20.7 51 7.6 WSW 24 30 13 16 1007.7 1007.5 0.0
25/12:30pm 31.2 30.8 20.2 52 7.3 W 22 28 12 15 1007.9 1007.7 0.0
25/12:00pm 30.7 31.0 20.3 53 6.9 WSW 19 26 10 14 1008.2 1008.0 0.0
25/11:30am 30.0 30.5 20.0 55 6.6 WSW 17 24 9 13 1008.3 1008.1 0.0
25/11:00am 30.1 30.8 20.4 56 6.4 W 17 24 9 13 1008.6 1008.4 0.0
25/10:30am 29.7 30.3 21.1 60 5.7 W 19 28 10 15 1008.8 1008.6 0.0
25/10:00am 28.8 28.8 21.0 62 5.2 W 22 30 12 16 1008.7 1008.5 0.0
25/09:30am 28.5 29.2 21.5 66 4.7 WSW 20 28 11 15 1008.6 1008.4 0.0
25/09:00am 27.1 27.1 20.9 69 4.1 WSW 22 28 12 15 1008.5 1008.3 -
25/08:30am 26.8 27.1 21.5 72 3.5 WSW 22 28 12 15 1008.1 1007.9 -
25/08:00am 26.0 26.2 21.4 76 3.1 W 22 30 12 16 1007.8 1007.6 -
25/07:30am 25.1 25.8 21.6 81 2.3 WSW 20 24 11 13 1007.8 1007.6 -
25/07:00am 24.4 25.7 21.7 85 1.8 WSW 17 19 9 10 1007.7 1007.5 -
25/06:30am 23.8 25.7 21.3 86 1.6 WSW 13 17 7 9 1007.6 1007.4 -
25/06:00am 23.9 25.5 21.4 86 1.7 W 15 19 8 10 1007.5 1007.3 -
25/05:30am 23.9 26.9 21.2 85 1.8 W 7 9 4 5 1007.7 1007.5 -

Other Formats:

Comma delimited format used in spreadsheet applications
http://www.bom.gov.au/fwo/IDW60801/IDW60801.95402.axf

JavaScript Object Notation format (JSON) in row-major order
http://www.bom.gov.au/fwo/IDW60801/IDW60801.95402.json